sensor_id;sensor_type;location;lat;lon;timestamp;P1;durP1;ratioP1;P2;durP2;ratioP2
56960;SDS011;42857;49.768;22.716;2022-09-09T00:06:26;53.45;;;31.17;;
56960;SDS011;42857;49.768;22.716;2022-09-09T00:11:21;54.95;;;33.10;;
56960;SDS011;42857;49.768;22.716;2022-09-09T00:13:52;51.00;;;32.00;;
56960;SDS011;42857;49.768;22.716;2022-09-09T00:16:24;51.97;;;33.10;;
56960;SDS011;42857;49.768;22.716;2022-09-09T00:18:53;44.95;;;31.38;;
56960;SDS011;42857;49.768;22.716;2022-09-09T00:21:23;48.75;;;31.58;;
56960;SDS011;42857;49.768;22.716;2022-09-09T00:23:51;58.30;;;33.03;;
56960;SDS011;42857;49.768;22.716;2022-09-09T00:26:32;57.17;;;33.08;;
56960;SDS011;42857;49.768;22.716;2022-09-09T00:29:05;54.30;;;35.65;;
56960;SDS011;42857;49.768;22.716;2022-09-09T00:31:35;57.45;;;38.15;;
56960;SDS011;42857;49.768;22.716;2022-09-09T00:36:37;62.65;;;37.03;;
56960;SDS011;42857;49.768;22.716;2022-09-09T00:39:04;56.30;;;35.60;;
56960;SDS011;42857;49.768;22.716;2022-09-09T00:41:44;53.28;;;33.78;;
56960;SDS011;42857;49.768;22.716;2022-09-09T00:47:12;56.13;;;37.15;;
56960;SDS011;42857;49.768;22.716;2022-09-09T00:49:57;55.65;;;35.97;;
56960;SDS011;42857;49.768;22.716;2022-09-09T00:55:07;54.28;;;35.08;;
56960;SDS011;42857;49.768;22.716;2022-09-09T00:57:36;50.83;;;34.40;;
56960;SDS011;42857;49.768;22.716;2022-09-09T01:00:18;56.88;;;35.55;;
56960;SDS011;42857;49.768;22.716;2022-09-09T01:05:20;54.20;;;34.15;;
56960;SDS011;42857;49.768;22.716;2022-09-09T01:07:47;53.47;;;33.40;;
56960;SDS011;42857;49.768;22.716;2022-09-09T01:12:59;53.35;;;34.22;;
56960;SDS011;42857;49.768;22.716;2022-09-09T01:15:27;55.75;;;34.10;;
56960;SDS011;42857;49.768;22.716;2022-09-09T01:28:55;52.70;;;33.35;;
56960;SDS011;42857;49.768;22.716;2022-09-09T01:34:27;52.70;;;30.33;;
56960;SDS011;42857;49.768;22.716;2022-09-09T01:39:20;49.78;;;31.00;;
56960;SDS011;42857;49.768;22.716;2022-09-09T01:41:46;48.33;;;30.92;;
56960;SDS011;42857;49.768;22.716;2022-09-09T01:44:12;52.35;;;33.38;;
56960;SDS011;42857;49.768;22.716;2022-09-09T01:46:38;49.03;;;31.70;;
56960;SDS011;42857;49.768;22.716;2022-09-09T01:49:05;45.55;;;30.60;;
56960;SDS011;42857;49.768;22.716;2022-09-09T01:51:32;51.95;;;30.83;;
56960;SDS011;42857;49.768;22.716;2022-09-09T01:53:58;41.92;;;29.42;;
56960;SDS011;42857;49.768;22.716;2022-09-09T02:06:42;46.40;;;28.98;;
56960;SDS011;42857;49.768;22.716;2022-09-09T02:09:10;46.83;;;30.92;;
56960;SDS011;42857;49.768;22.716;2022-09-09T02:11:37;43.70;;;27.95;;
56960;SDS011;42857;49.768;22.716;2022-09-09T02:14:08;42.22;;;28.50;;
56960;SDS011;42857;49.768;22.716;2022-09-09T02:16:40;42.85;;;29.67;;
56960;SDS011;42857;49.768;22.716;2022-09-09T02:19:11;45.17;;;28.50;;
56960;SDS011;42857;49.768;22.716;2022-09-09T02:21:41;43.25;;;27.85;;
56960;SDS011;42857;49.768;22.716;2022-09-09T02:24:08;41.50;;;29.05;;
56960;SDS011;42857;49.768;22.716;2022-09-09T02:26:36;41.42;;;27.10;;
56960;SDS011;42857;49.768;22.716;2022-09-09T02:29:05;43.08;;;28.73;;
56960;SDS011;42857;49.768;22.716;2022-09-09T02:31:33;44.03;;;27.75;;
56960;SDS011;42857;49.768;22.716;2022-09-09T02:34:00;42.60;;;26.70;;
56960;SDS011;42857;49.768;22.716;2022-09-09T02:36:28;41.00;;;26.60;;
56960;SDS011;42857;49.768;22.716;2022-09-09T02:38:55;43.50;;;28.67;;
56960;SDS011;42857;49.768;22.716;2022-09-09T02:41:30;41.00;;;26.13;;
56960;SDS011;42857;49.768;22.716;2022-09-09T02:43:57;42.58;;;27.65;;
56960;SDS011;42857;49.768;22.716;2022-09-09T02:46:36;36.97;;;26.20;;
56960;SDS011;42857;49.768;22.716;2022-09-09T02:49:27;42.20;;;25.67;;
56960;SDS011;42857;49.768;22.716;2022-09-09T02:51:58;43.40;;;26.55;;
56960;SDS011;42857;49.768;22.716;2022-09-09T02:54:27;39.60;;;26.52;;
56960;SDS011;42857;49.768;22.716;2022-09-09T02:56:55;41.35;;;25.92;;
56960;SDS011;42857;49.768;22.716;2022-09-09T02:59:22;40.03;;;25.27;;
56960;SDS011;42857;49.768;22.716;2022-09-09T03:01:50;39.35;;;24.88;;
56960;SDS011;42857;49.768;22.716;2022-09-09T03:04:16;35.88;;;24.80;;
56960;SDS011;42857;49.768;22.716;2022-09-09T03:06:42;35.35;;;25.20;;
56960;SDS011;42857;49.768;22.716;2022-09-09T03:09:09;37.15;;;25.00;;
56960;SDS011;42857;49.768;22.716;2022-09-09T03:11:35;36.17;;;25.60;;
56960;SDS011;42857;49.768;22.716;2022-09-09T03:14:01;39.10;;;25.60;;
56960;SDS011;42857;49.768;22.716;2022-09-09T03:16:27;36.10;;;24.23;;
56960;SDS011;42857;49.768;22.716;2022-09-09T03:18:53;45.08;;;26.00;;
56960;SDS011;42857;49.768;22.716;2022-09-09T03:21:19;38.78;;;25.02;;
56960;SDS011;42857;49.768;22.716;2022-09-09T03:23:45;39.03;;;25.35;;
56960;SDS011;42857;49.768;22.716;2022-09-09T03:26:11;35.33;;;24.42;;
56960;SDS011;42857;49.768;22.716;2022-09-09T03:28:40;38.83;;;25.23;;
56960;SDS011;42857;49.768;22.716;2022-09-09T03:31:06;36.78;;;24.98;;
56960;SDS011;42857;49.768;22.716;2022-09-09T03:33:35;36.55;;;25.25;;
56960;SDS011;42857;49.768;22.716;2022-09-09T03:36:01;39.33;;;26.13;;
56960;SDS011;42857;49.768;22.716;2022-09-09T03:38:28;36.00;;;25.08;;
56960;SDS011;42857;49.768;22.716;2022-09-09T03:40:54;39.08;;;25.20;;
56960;SDS011;42857;49.768;22.716;2022-09-09T03:43:22;36.53;;;24.83;;
56960;SDS011;42857;49.768;22.716;2022-09-09T03:45:48;36.95;;;23.80;;
56960;SDS011;42857;49.768;22.716;2022-09-09T03:48:15;43.70;;;27.63;;
56960;SDS011;42857;49.768;22.716;2022-09-09T03:50:45;37.70;;;25.50;;
56960;SDS011;42857;49.768;22.716;2022-09-09T03:53:11;36.97;;;24.55;;
56960;SDS011;42857;49.768;22.716;2022-09-09T03:55:37;40.30;;;24.70;;
56960;SDS011;42857;49.768;22.716;2022-09-09T03:58:03;38.20;;;26.52;;
56960;SDS011;42857;49.768;22.716;2022-09-09T04:00:29;38.05;;;25.55;;
56960;SDS011;42857;49.768;22.716;2022-09-09T04:02:55;34.63;;;25.02;;
56960;SDS011;42857;49.768;22.716;2022-09-09T04:05:21;38.70;;;26.23;;
56960;SDS011;42857;49.768;22.716;2022-09-09T04:07:47;33.85;;;23.52;;
56960;SDS011;42857;49.768;22.716;2022-09-09T04:10:13;37.85;;;26.63;;
56960;SDS011;42857;49.768;22.716;2022-09-09T04:12:40;34.92;;;24.70;;
56960;SDS011;42857;49.768;22.716;2022-09-09T04:15:06;40.88;;;26.70;;
56960;SDS011;42857;49.768;22.716;2022-09-09T04:17:33;39.20;;;25.85;;
56960;SDS011;42857;49.768;22.716;2022-09-09T04:19:59;41.08;;;25.98;;
56960;SDS011;42857;49.768;22.716;2022-09-09T04:22:26;39.88;;;26.08;;
56960;SDS011;42857;49.768;22.716;2022-09-09T04:24:52;39.35;;;26.63;;
56960;SDS011;42857;49.768;22.716;2022-09-09T04:27:18;37.10;;;26.20;;
56960;SDS011;42857;49.768;22.716;2022-09-09T04:29:44;37.80;;;26.58;;
56960;SDS011;42857;49.768;22.716;2022-09-09T04:32:09;38.15;;;26.73;;
56960;SDS011;42857;49.768;22.716;2022-09-09T04:34:36;36.90;;;25.42;;
56960;SDS011;42857;49.768;22.716;2022-09-09T04:37:02;35.53;;;24.73;;
56960;SDS011;42857;49.768;22.716;2022-09-09T04:39:28;40.83;;;25.00;;
56960;SDS011;42857;49.768;22.716;2022-09-09T04:41:54;37.13;;;24.70;;
56960;SDS011;42857;49.768;22.716;2022-09-09T04:44:20;39.10;;;24.65;;
56960;SDS011;42857;49.768;22.716;2022-09-09T04:46:46;36.58;;;25.90;;
56960;SDS011;42857;49.768;22.716;2022-09-09T04:49:12;36.75;;;25.92;;
56960;SDS011;42857;49.768;22.716;2022-09-09T04:51:38;39.10;;;25.70;;
56960;SDS011;42857;49.768;22.716;2022-09-09T04:54:04;36.90;;;25.42;;
56960;SDS011;42857;49.768;22.716;2022-09-09T04:56:30;35.92;;;24.25;;
56960;SDS011;42857;49.768;22.716;2022-09-09T04:58:56;36.92;;;25.70;;
56960;SDS011;42857;49.768;22.716;2022-09-09T05:01:22;40.38;;;26.98;;
56960;SDS011;42857;49.768;22.716;2022-09-09T05:03:49;34.03;;;24.30;;
56960;SDS011;42857;49.768;22.716;2022-09-09T05:06:17;41.83;;;25.85;;
56960;SDS011;42857;49.768;22.716;2022-09-09T05:08:44;36.75;;;25.60;;
56960;SDS011;42857;49.768;22.716;2022-09-09T05:13:42;35.28;;;24.85;;
56960;SDS011;42857;49.768;22.716;2022-09-09T05:16:08;39.05;;;26.25;;
56960;SDS011;42857;49.768;22.716;2022-09-09T05:18:36;36.20;;;25.98;;
56960;SDS011;42857;49.768;22.716;2022-09-09T05:21:02;39.90;;;26.90;;
56960;SDS011;42857;49.768;22.716;2022-09-09T05:23:28;38.03;;;24.80;;
56960;SDS011;42857;49.768;22.716;2022-09-09T05:25:57;39.25;;;25.58;;
56960;SDS011;42857;49.768;22.716;2022-09-09T05:28:24;34.92;;;24.45;;
56960;SDS011;42857;49.768;22.716;2022-09-09T05:30:59;39.10;;;26.25;;
56960;SDS011;42857;49.768;22.716;2022-09-09T05:33:26;38.35;;;25.20;;
56960;SDS011;42857;49.768;22.716;2022-09-09T05:35:59;36.00;;;25.15;;
56960;SDS011;42857;49.768;22.716;2022-09-09T05:38:26;35.67;;;24.00;;
56960;SDS011;42857;49.768;22.716;2022-09-09T05:40:52;35.67;;;24.05;;
56960;SDS011;42857;49.768;22.716;2022-09-09T05:43:19;37.88;;;25.55;;
56960;SDS011;42857;49.768;22.716;2022-09-09T05:45:46;37.85;;;26.30;;
56960;SDS011;42857;49.768;22.716;2022-09-09T05:48:12;35.65;;;25.73;;
56960;SDS011;42857;49.768;22.716;2022-09-09T05:50:39;33.33;;;23.58;;
56960;SDS011;42857;49.768;22.716;2022-09-09T05:53:06;35.13;;;24.23;;
56960;SDS011;42857;49.768;22.716;2022-09-09T05:55:32;40.03;;;24.80;;
56960;SDS011;42857;49.768;22.716;2022-09-09T05:57:58;37.28;;;24.58;;
56960;SDS011;42857;49.768;22.716;2022-09-09T06:00:24;36.15;;;25.00;;
56960;SDS011;42857;49.768;22.716;2022-09-09T06:02:51;35.10;;;24.25;;
56960;SDS011;42857;49.768;22.716;2022-09-09T06:05:17;39.20;;;24.67;;
56960;SDS011;42857;49.768;22.716;2022-09-09T06:07:43;34.97;;;23.58;;
56960;SDS011;42857;49.768;22.716;2022-09-09T06:10:10;34.97;;;23.75;;
56960;SDS011;42857;49.768;22.716;2022-09-09T06:12:38;32.92;;;22.95;;
56960;SDS011;42857;49.768;22.716;2022-09-09T06:15:04;34.53;;;23.10;;
56960;SDS011;42857;49.768;22.716;2022-09-09T06:17:30;37.25;;;23.30;;
56960;SDS011;42857;49.768;22.716;2022-09-09T06:19:56;33.75;;;23.67;;
56960;SDS011;42857;49.768;22.716;2022-09-09T06:22:23;32.03;;;23.50;;
56960;SDS011;42857;49.768;22.716;2022-09-09T06:24:49;34.20;;;24.75;;
56960;SDS011;42857;49.768;22.716;2022-09-09T06:27:16;34.78;;;23.15;;
56960;SDS011;42857;49.768;22.716;2022-09-09T06:29:42;33.97;;;24.38;;
56960;SDS011;42857;49.768;22.716;2022-09-09T06:32:07;36.78;;;24.05;;
56960;SDS011;42857;49.768;22.716;2022-09-09T06:34:34;33.00;;;23.45;;
56960;SDS011;42857;49.768;22.716;2022-09-09T06:37:01;34.40;;;24.35;;
56960;SDS011;42857;49.768;22.716;2022-09-09T06:39:27;33.78;;;23.60;;
56960;SDS011;42857;49.768;22.716;2022-09-09T06:41:53;33.25;;;23.00;;
56960;SDS011;42857;49.768;22.716;2022-09-09T06:44:19;33.70;;;23.83;;
56960;SDS011;42857;49.768;22.716;2022-09-09T06:46:45;35.95;;;25.42;;
56960;SDS011;42857;49.768;22.716;2022-09-09T06:51:40;31.13;;;22.90;;
56960;SDS011;42857;49.768;22.716;2022-09-09T07:05:27;38.15;;;25.67;;
56960;SDS011;42857;49.768;22.716;2022-09-09T07:07:53;36.22;;;25.42;;
56960;SDS011;42857;49.768;22.716;2022-09-09T07:10:19;31.23;;;23.88;;
56960;SDS011;42857;49.768;22.716;2022-09-09T07:12:49;27.80;;;21.77;;
56960;SDS011;42857;49.768;22.716;2022-09-09T07:15:16;30.15;;;22.38;;
56960;SDS011;42857;49.768;22.716;2022-09-09T07:17:43;30.23;;;22.63;;
56960;SDS011;42857;49.768;22.716;2022-09-09T07:20:09;36.15;;;23.58;;
56960;SDS011;42857;49.768;22.716;2022-09-09T07:22:36;33.42;;;23.85;;
56960;SDS011;42857;49.768;22.716;2022-09-09T07:25:02;32.65;;;24.77;;
56960;SDS011;42857;49.768;22.716;2022-09-09T07:27:28;30.20;;;23.55;;
56960;SDS011;42857;49.768;22.716;2022-09-09T07:29:55;34.05;;;24.45;;
56960;SDS011;42857;49.768;22.716;2022-09-09T07:32:22;29.20;;;22.45;;
56960;SDS011;42857;49.768;22.716;2022-09-09T07:34:48;32.80;;;21.95;;
56960;SDS011;42857;49.768;22.716;2022-09-09T07:37:15;29.80;;;22.77;;
56960;SDS011;42857;49.768;22.716;2022-09-09T07:39:41;30.58;;;22.75;;
56960;SDS011;42857;49.768;22.716;2022-09-09T07:42:08;27.92;;;21.50;;
56960;SDS011;42857;49.768;22.716;2022-09-09T07:44:36;29.10;;;21.02;;
56960;SDS011;42857;49.768;22.716;2022-09-09T07:47:04;36.47;;;23.33;;
56960;SDS011;42857;49.768;22.716;2022-09-09T07:49:30;28.00;;;21.90;;
56960;SDS011;42857;49.768;22.716;2022-09-09T07:51:56;28.83;;;21.83;;
56960;SDS011;42857;49.768;22.716;2022-09-09T07:54:22;28.65;;;21.77;;
56960;SDS011;42857;49.768;22.716;2022-09-09T07:56:49;30.90;;;23.15;;
56960;SDS011;42857;49.768;22.716;2022-09-09T07:59:15;28.77;;;23.10;;
56960;SDS011;42857;49.768;22.716;2022-09-09T08:01:42;32.00;;;22.58;;
56960;SDS011;42857;49.768;22.716;2022-09-09T08:04:10;30.13;;;22.92;;
56960;SDS011;42857;49.768;22.716;2022-09-09T08:06:40;29.60;;;22.55;;
56960;SDS011;42857;49.768;22.716;2022-09-09T08:09:07;28.38;;;22.45;;
56960;SDS011;42857;49.768;22.716;2022-09-09T08:11:34;26.65;;;21.52;;
56960;SDS011;42857;49.768;22.716;2022-09-09T08:14:01;29.60;;;22.85;;
56960;SDS011;42857;49.768;22.716;2022-09-09T08:16:28;28.75;;;22.50;;
56960;SDS011;42857;49.768;22.716;2022-09-09T08:18:55;28.90;;;22.45;;
56960;SDS011;42857;49.768;22.716;2022-09-09T08:21:22;29.92;;;21.92;;
56960;SDS011;42857;49.768;22.716;2022-09-09T08:23:49;29.67;;;22.50;;
56960;SDS011;42857;49.768;22.716;2022-09-09T08:26:21;28.60;;;21.90;;
56960;SDS011;42857;49.768;22.716;2022-09-09T08:28:48;30.38;;;22.42;;
56960;SDS011;42857;49.768;22.716;2022-09-09T08:31:17;30.58;;;23.42;;
56960;SDS011;42857;49.768;22.716;2022-09-09T08:33:43;27.48;;;22.38;;
56960;SDS011;42857;49.768;22.716;2022-09-09T08:36:13;31.40;;;23.50;;
56960;SDS011;42857;49.768;22.716;2022-09-09T08:38:43;26.88;;;21.77;;
56960;SDS011;42857;49.768;22.716;2022-09-09T08:41:13;31.98;;;23.27;;
56960;SDS011;42857;49.768;22.716;2022-09-09T08:43:43;28.05;;;22.38;;
56960;SDS011;42857;49.768;22.716;2022-09-09T08:46:14;32.25;;;23.88;;
56960;SDS011;42857;49.768;22.716;2022-09-09T08:49:44;33.35;;;25.00;;
56960;SDS011;42857;49.768;22.716;2022-09-09T08:51:38;36.25;;;26.40;;
56960;SDS011;42857;49.768;22.716;2022-09-09T08:54:04;32.75;;;24.38;;
56960;SDS011;42857;49.768;22.716;2022-09-09T08:56:31;36.28;;;27.35;;
56960;SDS011;42857;49.768;22.716;2022-09-09T08:58:59;29.67;;;24.23;;
56960;SDS011;42857;49.768;22.716;2022-09-09T09:01:41;30.17;;;23.15;;
56960;SDS011;42857;49.768;22.716;2022-09-09T09:09:48;26.80;;;20.88;;
56960;SDS011;42857;49.768;22.716;2022-09-09T09:12:20;23.42;;;19.17;;
56960;SDS011;42857;49.768;22.716;2022-09-09T09:14:47;28.35;;;21.33;;
56960;SDS011;42857;49.768;22.716;2022-09-09T09:17:14;24.40;;;20.08;;
56960;SDS011;42857;49.768;22.716;2022-09-09T09:19:41;25.42;;;19.52;;
56960;SDS011;42857;49.768;22.716;2022-09-09T10:56:41;20.58;;;16.60;;
56960;SDS011;42857;49.768;22.716;2022-09-09T11:07:42;18.95;;;16.33;;
56960;SDS011;42857;49.768;22.716;2022-09-09T11:10:16;21.10;;;16.30;;
56960;SDS011;42857;49.768;22.716;2022-09-09T11:12:43;21.05;;;17.90;;
56960;SDS011;42857;49.768;22.716;2022-09-09T11:15:14;23.25;;;18.67;;
56960;SDS011;42857;49.768;22.716;2022-09-09T11:17:44;20.83;;;17.17;;
56960;SDS011;42857;49.768;22.716;2022-09-09T11:20:12;23.08;;;17.65;;
56960;SDS011;42857;49.768;22.716;2022-09-09T11:22:59;23.77;;;18.42;;
56960;SDS011;42857;49.768;22.716;2022-09-09T11:25:34;22.92;;;17.48;;
56960;SDS011;42857;49.768;22.716;2022-09-09T11:38:47;20.48;;;16.40;;
56960;SDS011;42857;49.768;22.716;2022-09-09T11:41:15;22.90;;;17.20;;
56960;SDS011;42857;49.768;22.716;2022-09-09T11:43:45;21.20;;;16.38;;
56960;SDS011;42857;49.768;22.716;2022-09-09T11:46:13;22.67;;;17.50;;
56960;SDS011;42857;49.768;22.716;2022-09-09T11:51:11;24.55;;;16.88;;
56960;SDS011;42857;49.768;22.716;2022-09-09T11:53:47;23.33;;;17.17;;
56960;SDS011;42857;49.768;22.716;2022-09-09T11:56:22;28.48;;;18.13;;
56960;SDS011;42857;49.768;22.716;2022-09-09T11:59:03;22.90;;;18.17;;
56960;SDS011;42857;49.768;22.716;2022-09-09T12:04:00;22.60;;;17.20;;
56960;SDS011;42857;49.768;22.716;2022-09-09T12:06:28;26.88;;;18.73;;
56960;SDS011;42857;49.768;22.716;2022-09-09T12:08:58;22.92;;;17.02;;
56960;SDS011;42857;49.768;22.716;2022-09-09T12:11:30;19.80;;;16.00;;
56960;SDS011;42857;49.768;22.716;2022-09-09T12:13:57;21.88;;;16.88;;
56960;SDS011;42857;49.768;22.716;2022-09-09T12:16:34;20.87;;;16.83;;
56960;SDS011;42857;49.768;22.716;2022-09-09T12:19:05;23.98;;;16.85;;
56960;SDS011;42857;49.768;22.716;2022-09-09T12:24:19;22.27;;;17.02;;
56960;SDS011;42857;49.768;22.716;2022-09-09T12:27:07;23.02;;;16.48;;
56960;SDS011;42857;49.768;22.716;2022-09-09T12:29:52;20.08;;;15.38;;
56960;SDS011;42857;49.768;22.716;2022-09-09T12:32:24;18.73;;;15.13;;
56960;SDS011;42857;49.768;22.716;2022-09-09T12:37:48;20.40;;;14.98;;
56960;SDS011;42857;49.768;22.716;2022-09-09T12:42:44;15.25;;;13.35;;
56960;SDS011;42857;49.768;22.716;2022-09-09T12:45:18;19.38;;;16.08;;
56960;SDS011;42857;49.768;22.716;2022-09-09T12:50:21;21.15;;;15.95;;
56960;SDS011;42857;49.768;22.716;2022-09-09T12:52:48;18.10;;;15.30;;
56960;SDS011;42857;49.768;22.716;2022-09-09T12:55:19;22.80;;;16.67;;
56960;SDS011;42857;49.768;22.716;2022-09-09T12:57:46;19.73;;;16.15;;
56960;SDS011;42857;49.768;22.716;2022-09-09T13:00:15;21.67;;;17.30;;
56960;SDS011;42857;49.768;22.716;2022-09-09T13:02:45;21.17;;;15.93;;
56960;SDS011;42857;49.768;22.716;2022-09-09T13:05:15;20.45;;;15.18;;
56960;SDS011;42857;49.768;22.716;2022-09-09T13:07:42;20.25;;;16.60;;
56960;SDS011;42857;49.768;22.716;2022-09-09T13:10:12;20.02;;;15.80;;
56960;SDS011;42857;49.768;22.716;2022-09-09T13:12:38;20.45;;;15.88;;
56960;SDS011;42857;49.768;22.716;2022-09-09T13:15:05;18.92;;;14.98;;
56960;SDS011;42857;49.768;22.716;2022-09-09T13:17:36;18.95;;;14.90;;
56960;SDS011;42857;49.768;22.716;2022-09-09T13:20:03;18.80;;;14.48;;
56960;SDS011;42857;49.768;22.716;2022-09-09T13:22:31;18.92;;;14.55;;
56960;SDS011;42857;49.768;22.716;2022-09-09T13:27:32;18.35;;;14.10;;
56960;SDS011;42857;49.768;22.716;2022-09-09T13:29:59;17.45;;;13.55;;
56960;SDS011;42857;49.768;22.716;2022-09-09T13:32:26;18.92;;;14.07;;
56960;SDS011;42857;49.768;22.716;2022-09-09T13:34:53;19.10;;;13.52;;
56960;SDS011;42857;49.768;22.716;2022-09-09T13:37:23;17.30;;;14.18;;
56960;SDS011;42857;49.768;22.716;2022-09-09T13:39:51;21.33;;;14.48;;
56960;SDS011;42857;49.768;22.716;2022-09-09T13:42:28;17.45;;;14.13;;
56960;SDS011;42857;49.768;22.716;2022-09-09T13:44:55;17.83;;;14.23;;
56960;SDS011;42857;49.768;22.716;2022-09-09T13:47:22;20.50;;;13.57;;
56960;SDS011;42857;49.768;22.716;2022-09-09T13:49:52;18.67;;;14.27;;
56960;SDS011;42857;49.768;22.716;2022-09-09T13:52:18;18.38;;;13.93;;
56960;SDS011;42857;49.768;22.716;2022-09-09T13:54:48;14.13;;;12.20;;
56960;SDS011;42857;49.768;22.716;2022-09-09T13:59:44;14.60;;;12.25;;
56960;SDS011;42857;49.768;22.716;2022-09-09T14:02:10;16.90;;;14.07;;
56960;SDS011;42857;49.768;22.716;2022-09-09T14:04:36;16.67;;;13.75;;
56960;SDS011;42857;49.768;22.716;2022-09-09T14:07:02;18.67;;;13.65;;
56960;SDS011;42857;49.768;22.716;2022-09-09T14:09:28;16.85;;;13.82;;
56960;SDS011;42857;49.768;22.716;2022-09-09T14:11:54;19.17;;;13.85;;
56960;SDS011;42857;49.768;22.716;2022-09-09T14:14:20;16.15;;;13.50;;
56960;SDS011;42857;49.768;22.716;2022-09-09T14:16:46;18.30;;;14.13;;
56960;SDS011;42857;49.768;22.716;2022-09-09T14:19:12;19.13;;;13.85;;
56960;SDS011;42857;49.768;22.716;2022-09-09T14:21:38;19.05;;;14.00;;
56960;SDS011;42857;49.768;22.716;2022-09-09T14:24:04;17.75;;;13.15;;
56960;SDS011;42857;49.768;22.716;2022-09-09T14:26:31;14.98;;;12.15;;
56960;SDS011;42857;49.768;22.716;2022-09-09T14:28:57;14.02;;;12.43;;
56960;SDS011;42857;49.768;22.716;2022-09-09T14:31:23;15.65;;;12.85;;
56960;SDS011;42857;49.768;22.716;2022-09-09T14:33:50;16.35;;;12.15;;
56960;SDS011;42857;49.768;22.716;2022-09-09T14:36:16;14.90;;;11.90;;
56960;SDS011;42857;49.768;22.716;2022-09-09T14:38:42;19.95;;;13.65;;
56960;SDS011;42857;49.768;22.716;2022-09-09T14:41:09;18.80;;;13.38;;
56960;SDS011;42857;49.768;22.716;2022-09-09T14:43:37;16.45;;;12.15;;
56960;SDS011;42857;49.768;22.716;2022-09-09T14:46:07;15.73;;;13.57;;
56960;SDS011;42857;49.768;22.716;2022-09-09T14:48:34;20.65;;;15.00;;
56960;SDS011;42857;49.768;22.716;2022-09-09T14:51:13;14.10;;;11.57;;
56960;SDS011;42857;49.768;22.716;2022-09-09T14:53:40;14.40;;;12.70;;
56960;SDS011;42857;49.768;22.716;2022-09-09T14:56:07;14.48;;;12.18;;
56960;SDS011;42857;49.768;22.716;2022-09-09T14:58:33;17.02;;;12.10;;
56960;SDS011;42857;49.768;22.716;2022-09-09T15:01:18;16.20;;;12.10;;
56960;SDS011;42857;49.768;22.716;2022-09-09T15:03:49;17.05;;;12.27;;
56960;SDS011;42857;49.768;22.716;2022-09-09T15:06:16;15.82;;;12.20;;
56960;SDS011;42857;49.768;22.716;2022-09-09T15:20:59;17.00;;;11.68;;
56960;SDS011;42857;49.768;22.716;2022-09-09T15:23:26;14.95;;;11.73;;
56960;SDS011;42857;49.768;22.716;2022-09-09T15:25:53;13.82;;;11.13;;
56960;SDS011;42857;49.768;22.716;2022-09-09T15:28:19;14.35;;;10.85;;
56960;SDS011;42857;49.768;22.716;2022-09-09T15:30:49;16.63;;;12.48;;
56960;SDS011;42857;49.768;22.716;2022-09-09T15:33:15;15.00;;;11.20;;
56960;SDS011;42857;49.768;22.716;2022-09-09T15:35:41;17.33;;;11.02;;
56960;SDS011;42857;49.768;22.716;2022-09-09T15:38:07;14.95;;;12.02;;
56960;SDS011;42857;49.768;22.716;2022-09-09T15:40:33;15.38;;;11.10;;
56960;SDS011;42857;49.768;22.716;2022-09-09T15:42:59;14.80;;;11.07;;
56960;SDS011;42857;49.768;22.716;2022-09-09T15:45:25;15.73;;;11.57;;
56960;SDS011;42857;49.768;22.716;2022-09-09T15:47:51;16.25;;;11.57;;
56960;SDS011;42857;49.768;22.716;2022-09-09T15:50:17;14.98;;;10.43;;
56960;SDS011;42857;49.768;22.716;2022-09-09T15:52:43;13.10;;;9.48;;
56960;SDS011;42857;49.768;22.716;2022-09-09T15:55:09;17.35;;;10.98;;
56960;SDS011;42857;49.768;22.716;2022-09-09T15:57:35;12.55;;;10.07;;
56960;SDS011;42857;49.768;22.716;2022-09-09T16:00:03;15.10;;;9.85;;
56960;SDS011;42857;49.768;22.716;2022-09-09T16:02:29;13.52;;;11.00;;
56960;SDS011;42857;49.768;22.716;2022-09-09T16:04:55;13.48;;;9.18;;
56960;SDS011;42857;49.768;22.716;2022-09-09T16:07:22;12.32;;;10.13;;
56960;SDS011;42857;49.768;22.716;2022-09-09T16:09:48;17.15;;;11.18;;
56960;SDS011;42857;49.768;22.716;2022-09-09T16:12:16;16.73;;;11.20;;
56960;SDS011;42857;49.768;22.716;2022-09-09T16:14:42;16.10;;;11.32;;
56960;SDS011;42857;49.768;22.716;2022-09-09T16:17:08;14.35;;;11.13;;
56960;SDS011;42857;49.768;22.716;2022-09-09T16:19:34;14.52;;;11.02;;
56960;SDS011;42857;49.768;22.716;2022-09-09T16:22:00;16.85;;;11.15;;
56960;SDS011;42857;49.768;22.716;2022-09-09T16:24:27;13.25;;;9.68;;
56960;SDS011;42857;49.768;22.716;2022-09-09T16:26:53;11.80;;;9.35;;
56960;SDS011;42857;49.768;22.716;2022-09-09T16:29:20;13.40;;;9.70;;
56960;SDS011;42857;49.768;22.716;2022-09-09T16:31:52;15.02;;;10.38;;
56960;SDS011;42857;49.768;22.716;2022-09-09T16:34:18;14.25;;;10.88;;
56960;SDS011;42857;49.768;22.716;2022-09-09T16:36:45;14.65;;;11.25;;
56960;SDS011;42857;49.768;22.716;2022-09-09T16:39:12;14.80;;;11.77;;
56960;SDS011;42857;49.768;22.716;2022-09-09T16:41:38;15.98;;;11.23;;
56960;SDS011;42857;49.768;22.716;2022-09-09T16:44:06;18.17;;;11.82;;
56960;SDS011;42857;49.768;22.716;2022-09-09T16:46:33;17.02;;;11.52;;
56960;SDS011;42857;49.768;22.716;2022-09-09T16:49:00;14.23;;;11.57;;
56960;SDS011;42857;49.768;22.716;2022-09-09T16:51:34;19.10;;;11.57;;
56960;SDS011;42857;49.768;22.716;2022-09-09T16:54:01;18.55;;;12.57;;
56960;SDS011;42857;49.768;22.716;2022-09-09T16:56:31;15.70;;;12.60;;
56960;SDS011;42857;49.768;22.716;2022-09-09T16:59:00;21.48;;;12.65;;
56960;SDS011;42857;49.768;22.716;2022-09-09T17:01:28;17.50;;;12.45;;
56960;SDS011;42857;49.768;22.716;2022-09-09T17:03:54;15.80;;;12.13;;
56960;SDS011;42857;49.768;22.716;2022-09-09T17:06:20;20.55;;;11.75;;
56960;SDS011;42857;49.768;22.716;2022-09-09T17:08:46;20.27;;;13.15;;
56960;SDS011;42857;49.768;22.716;2022-09-09T17:11:14;20.30;;;12.50;;
56960;SDS011;42857;49.768;22.716;2022-09-09T17:13:41;17.80;;;12.38;;
56960;SDS011;42857;49.768;22.716;2022-09-09T17:16:07;18.67;;;12.02;;
56960;SDS011;42857;49.768;22.716;2022-09-09T17:18:34;18.63;;;12.48;;
56960;SDS011;42857;49.768;22.716;2022-09-09T17:21:04;16.40;;;12.18;;
56960;SDS011;42857;49.768;22.716;2022-09-09T17:23:31;17.02;;;12.52;;
56960;SDS011;42857;49.768;22.716;2022-09-09T17:25:58;21.13;;;13.55;;
56960;SDS011;42857;49.768;22.716;2022-09-09T17:28:25;18.23;;;13.88;;
56960;SDS011;42857;49.768;22.716;2022-09-09T17:30:55;17.27;;;12.50;;
56960;SDS011;42857;49.768;22.716;2022-09-09T17:33:22;15.80;;;12.50;;
56960;SDS011;42857;49.768;22.716;2022-09-09T17:35:48;16.50;;;12.82;;
56960;SDS011;42857;49.768;22.716;2022-09-09T17:38:14;18.30;;;12.38;;
56960;SDS011;42857;49.768;22.716;2022-09-09T17:40:40;18.80;;;13.23;;
56960;SDS011;42857;49.768;22.716;2022-09-09T17:43:07;19.27;;;13.38;;
56960;SDS011;42857;49.768;22.716;2022-09-09T17:45:34;16.67;;;12.93;;
56960;SDS011;42857;49.768;22.716;2022-09-09T17:48:00;20.10;;;13.75;;
56960;SDS011;42857;49.768;22.716;2022-09-09T17:50:26;21.70;;;14.65;;